sensor_id;sensor_type;location;lat;lon;timestamp;P1;durP1;ratioP1;P2;durP2;ratioP2
24644;SDS011;12780;45.502;9.146;2023-03-14T00:01:51;45.42;;;21.88;;
24644;SDS011;12780;45.502;9.146;2023-03-14T00:04:17;35.72;;;21.30;;
24644;SDS011;12780;45.502;9.146;2023-03-14T00:06:42;41.55;;;20.98;;
24644;SDS011;12780;45.502;9.146;2023-03-14T00:09:08;39.40;;;21.50;;
24644;SDS011;12780;45.502;9.146;2023-03-14T00:11:34;40.33;;;21.95;;
24644;SDS011;12780;45.502;9.146;2023-03-14T00:13:59;40.25;;;22.02;;
24644;SDS011;12780;45.502;9.146;2023-03-14T00:16:25;38.85;;;21.25;;
24644;SDS011;12780;45.502;9.146;2023-03-14T00:18:51;41.83;;;22.05;;
24644;SDS011;12780;45.502;9.146;2023-03-14T00:21:17;42.22;;;21.50;;
24644;SDS011;12780;45.502;9.146;2023-03-14T00:23:43;40.28;;;21.38;;
24644;SDS011;12780;45.502;9.146;2023-03-14T00:26:12;41.63;;;20.83;;
24644;SDS011;12780;45.502;9.146;2023-03-14T00:28:39;39.10;;;20.77;;
24644;SDS011;12780;45.502;9.146;2023-03-14T00:31:06;35.22;;;19.85;;
24644;SDS011;12780;45.502;9.146;2023-03-14T00:33:33;38.38;;;19.95;;
24644;SDS011;12780;45.502;9.146;2023-03-14T00:36:00;39.03;;;20.35;;
24644;SDS011;12780;45.502;9.146;2023-03-14T00:38:31;37.25;;;19.63;;
24644;SDS011;12780;45.502;9.146;2023-03-14T00:40:58;37.13;;;18.95;;
24644;SDS011;12780;45.502;9.146;2023-03-14T00:43:23;35.50;;;18.95;;
24644;SDS011;12780;45.502;9.146;2023-03-14T00:45:50;34.13;;;18.92;;
24644;SDS011;12780;45.502;9.146;2023-03-14T00:48:17;41.65;;;20.23;;
24644;SDS011;12780;45.502;9.146;2023-03-14T00:50:44;32.03;;;18.17;;
24644;SDS011;12780;45.502;9.146;2023-03-14T00:53:10;39.35;;;19.80;;
24644;SDS011;12780;45.502;9.146;2023-03-14T00:55:40;39.75;;;20.48;;
24644;SDS011;12780;45.502;9.146;2023-03-14T00:58:07;36.05;;;18.60;;
24644;SDS011;12780;45.502;9.146;2023-03-14T01:00:33;31.88;;;18.60;;
24644;SDS011;12780;45.502;9.146;2023-03-14T01:03:00;35.45;;;18.65;;
24644;SDS011;12780;45.502;9.146;2023-03-14T01:05:26;31.42;;;18.77;;
24644;SDS011;12780;45.502;9.146;2023-03-14T01:07:52;31.30;;;17.00;;
24644;SDS011;12780;45.502;9.146;2023-03-14T01:10:17;32.75;;;17.70;;
24644;SDS011;12780;45.502;9.146;2023-03-14T01:12:43;30.55;;;16.25;;
24644;SDS011;12780;45.502;9.146;2023-03-14T01:15:09;32.55;;;17.08;;
24644;SDS011;12780;45.502;9.146;2023-03-14T01:17:35;31.48;;;17.15;;
24644;SDS011;12780;45.502;9.146;2023-03-14T01:20:02;35.00;;;17.08;;
24644;SDS011;12780;45.502;9.146;2023-03-14T01:22:29;34.20;;;16.70;;
24644;SDS011;12780;45.502;9.146;2023-03-14T01:24:55;27.33;;;14.75;;
24644;SDS011;12780;45.502;9.146;2023-03-14T01:27:21;27.20;;;16.00;;
24644;SDS011;12780;45.502;9.146;2023-03-14T01:29:46;30.30;;;16.20;;
24644;SDS011;12780;45.502;9.146;2023-03-14T01:32:12;30.73;;;15.88;;
24644;SDS011;12780;45.502;9.146;2023-03-14T01:34:38;30.50;;;16.02;;
24644;SDS011;12780;45.502;9.146;2023-03-14T01:37:03;32.90;;;16.08;;
24644;SDS011;12780;45.502;9.146;2023-03-14T01:39:29;32.88;;;15.63;;
24644;SDS011;12780;45.502;9.146;2023-03-14T01:41:54;30.63;;;16.25;;
24644;SDS011;12780;45.502;9.146;2023-03-14T01:44:20;28.90;;;16.27;;
24644;SDS011;12780;45.502;9.146;2023-03-14T01:46:46;31.52;;;16.27;;
24644;SDS011;12780;45.502;9.146;2023-03-14T01:49:30;30.10;;;15.80;;
24644;SDS011;12780;45.502;9.146;2023-03-14T01:52:07;34.08;;;16.85;;
24644;SDS011;12780;45.502;9.146;2023-03-14T01:54:42;29.33;;;16.20;;
24644;SDS011;12780;45.502;9.146;2023-03-14T01:57:13;34.15;;;16.65;;
24644;SDS011;12780;45.502;9.146;2023-03-14T01:59:46;35.97;;;17.00;;
24644;SDS011;12780;45.502;9.146;2023-03-14T02:02:18;32.30;;;17.25;;
24644;SDS011;12780;45.502;9.146;2023-03-14T02:04:44;32.83;;;17.33;;
24644;SDS011;12780;45.502;9.146;2023-03-14T02:07:15;36.78;;;17.33;;
24644;SDS011;12780;45.502;9.146;2023-03-14T02:09:49;31.45;;;17.63;;
24644;SDS011;12780;45.502;9.146;2023-03-14T02:12:16;32.13;;;17.00;;
24644;SDS011;12780;45.502;9.146;2023-03-14T02:14:43;33.60;;;17.52;;
24644;SDS011;12780;45.502;9.146;2023-03-14T02:17:13;29.45;;;16.42;;
24644;SDS011;12780;45.502;9.146;2023-03-14T02:19:44;30.13;;;17.63;;
24644;SDS011;12780;45.502;9.146;2023-03-14T02:22:31;31.45;;;16.35;;
24644;SDS011;12780;45.502;9.146;2023-03-14T02:27:40;31.20;;;17.65;;
24644;SDS011;12780;45.502;9.146;2023-03-14T02:30:08;31.88;;;18.63;;
24644;SDS011;12780;45.502;9.146;2023-03-14T02:32:37;33.80;;;17.63;;
24644;SDS011;12780;45.502;9.146;2023-03-14T02:35:08;28.48;;;16.42;;
24644;SDS011;12780;45.502;9.146;2023-03-14T02:37:40;32.25;;;17.48;;
24644;SDS011;12780;45.502;9.146;2023-03-14T02:40:25;26.55;;;15.75;;
24644;SDS011;12780;45.502;9.146;2023-03-14T02:42:50;27.95;;;16.45;;
24644;SDS011;12780;45.502;9.146;2023-03-14T02:47:43;30.05;;;16.55;;
24644;SDS011;12780;45.502;9.146;2023-03-14T02:50:14;28.50;;;15.65;;
24644;SDS011;12780;45.502;9.146;2023-03-14T02:52:43;27.98;;;16.27;;
24644;SDS011;12780;45.502;9.146;2023-03-14T02:55:09;30.35;;;15.85;;
24644;SDS011;12780;45.502;9.146;2023-03-14T02:57:35;27.83;;;15.75;;
24644;SDS011;12780;45.502;9.146;2023-03-14T03:00:01;26.40;;;15.68;;
24644;SDS011;12780;45.502;9.146;2023-03-14T03:02:29;25.38;;;15.07;;
24644;SDS011;12780;45.502;9.146;2023-03-14T03:04:55;26.70;;;14.93;;
24644;SDS011;12780;45.502;9.146;2023-03-14T03:07:21;34.45;;;16.30;;
24644;SDS011;12780;45.502;9.146;2023-03-14T03:09:47;27.33;;;16.83;;
24644;SDS011;12780;45.502;9.146;2023-03-14T03:12:12;34.35;;;17.75;;
24644;SDS011;12780;45.502;9.146;2023-03-14T03:14:38;40.28;;;16.58;;
24644;SDS011;12780;45.502;9.146;2023-03-14T03:17:04;29.17;;;16.35;;
24644;SDS011;12780;45.502;9.146;2023-03-14T03:19:30;37.10;;;15.52;;
24644;SDS011;12780;45.502;9.146;2023-03-14T03:21:56;29.13;;;17.08;;
24644;SDS011;12780;45.502;9.146;2023-03-14T03:24:22;32.45;;;16.05;;
24644;SDS011;12780;45.502;9.146;2023-03-14T03:26:48;38.13;;;17.45;;
24644;SDS011;12780;45.502;9.146;2023-03-14T03:29:14;29.52;;;15.73;;
24644;SDS011;12780;45.502;9.146;2023-03-14T03:31:39;32.10;;;16.70;;
24644;SDS011;12780;45.502;9.146;2023-03-14T03:34:05;30.50;;;16.63;;
24644;SDS011;12780;45.502;9.146;2023-03-14T03:36:30;38.53;;;17.27;;
24644;SDS011;12780;45.502;9.146;2023-03-14T03:38:56;31.30;;;16.38;;
24644;SDS011;12780;45.502;9.146;2023-03-14T03:41:21;30.42;;;16.90;;
24644;SDS011;12780;45.502;9.146;2023-03-14T03:43:47;31.77;;;16.40;;
24644;SDS011;12780;45.502;9.146;2023-03-14T03:46:12;39.97;;;16.58;;
24644;SDS011;12780;45.502;9.146;2023-03-14T03:48:38;30.73;;;16.75;;
24644;SDS011;12780;45.502;9.146;2023-03-14T03:51:04;34.25;;;16.98;;
24644;SDS011;12780;45.502;9.146;2023-03-14T03:53:30;19.60;;;7.57;;
24644;SDS011;12780;45.502;9.146;2023-03-14T03:55:55;39.17;;;18.48;;
24644;SDS011;12780;45.502;9.146;2023-03-14T03:58:21;36.83;;;18.33;;
24644;SDS011;12780;45.502;9.146;2023-03-14T04:00:46;39.47;;;18.92;;
24644;SDS011;12780;45.502;9.146;2023-03-14T04:03:12;18.30;;;7.30;;
24644;SDS011;12780;45.502;9.146;2023-03-14T04:05:38;12.55;;;6.07;;
24644;SDS011;12780;45.502;9.146;2023-03-14T04:08:03;18.15;;;7.47;;
24644;SDS011;12780;45.502;9.146;2023-03-14T04:10:29;24.35;;;6.22;;
24644;SDS011;12780;45.502;9.146;2023-03-14T04:12:58;49.33;;;21.33;;
24644;SDS011;12780;45.502;9.146;2023-03-14T04:15:24;29.60;;;12.35;;
24644;SDS011;12780;45.502;9.146;2023-03-14T04:17:49;47.42;;;22.70;;
24644;SDS011;12780;45.502;9.146;2023-03-14T04:20:15;47.75;;;22.67;;
24644;SDS011;12780;45.502;9.146;2023-03-14T04:22:41;53.85;;;25.10;;
24644;SDS011;12780;45.502;9.146;2023-03-14T04:25:06;50.35;;;24.00;;
24644;SDS011;12780;45.502;9.146;2023-03-14T04:27:32;45.83;;;21.80;;
24644;SDS011;12780;45.502;9.146;2023-03-14T04:29:58;43.08;;;21.33;;
24644;SDS011;12780;45.502;9.146;2023-03-14T04:32:23;44.50;;;21.55;;
24644;SDS011;12780;45.502;9.146;2023-03-14T04:34:49;42.78;;;20.88;;
24644;SDS011;12780;45.502;9.146;2023-03-14T04:37:15;51.60;;;19.77;;
24644;SDS011;12780;45.502;9.146;2023-03-14T04:39:40;54.58;;;21.33;;
24644;SDS011;12780;45.502;9.146;2023-03-14T04:42:06;45.53;;;22.95;;
24644;SDS011;12780;45.502;9.146;2023-03-14T04:44:31;44.63;;;21.88;;
24644;SDS011;12780;45.502;9.146;2023-03-14T04:46:57;46.28;;;23.13;;
24644;SDS011;12780;45.502;9.146;2023-03-14T04:49:23;38.88;;;20.05;;
24644;SDS011;12780;45.502;9.146;2023-03-14T04:51:48;41.20;;;21.13;;
24644;SDS011;12780;45.502;9.146;2023-03-14T04:54:16;37.55;;;20.00;;
24644;SDS011;12780;45.502;9.146;2023-03-14T04:56:42;38.92;;;18.77;;
24644;SDS011;12780;45.502;9.146;2023-03-14T04:59:07;41.33;;;20.05;;
24644;SDS011;12780;45.502;9.146;2023-03-14T05:01:33;40.90;;;19.02;;
24644;SDS011;12780;45.502;9.146;2023-03-14T05:03:59;35.83;;;18.63;;
24644;SDS011;12780;45.502;9.146;2023-03-14T05:06:25;38.83;;;19.02;;
24644;SDS011;12780;45.502;9.146;2023-03-14T05:08:50;40.67;;;19.05;;
24644;SDS011;12780;45.502;9.146;2023-03-14T05:11:16;37.13;;;18.80;;
24644;SDS011;12780;45.502;9.146;2023-03-14T05:13:41;32.95;;;18.58;;
24644;SDS011;12780;45.502;9.146;2023-03-14T05:16:08;34.03;;;19.60;;
24644;SDS011;12780;45.502;9.146;2023-03-14T05:18:35;36.50;;;19.45;;
24644;SDS011;12780;45.502;9.146;2023-03-14T05:21:01;37.65;;;19.17;;
24644;SDS011;12780;45.502;9.146;2023-03-14T05:23:27;36.45;;;19.75;;
24644;SDS011;12780;45.502;9.146;2023-03-14T05:25:53;32.90;;;18.80;;
24644;SDS011;12780;45.502;9.146;2023-03-14T05:28:19;36.63;;;18.50;;
24644;SDS011;12780;45.502;9.146;2023-03-14T05:30:44;38.33;;;19.90;;
24644;SDS011;12780;45.502;9.146;2023-03-14T05:33:11;31.48;;;17.30;;
24644;SDS011;12780;45.502;9.146;2023-03-14T05:35:36;37.97;;;19.88;;
24644;SDS011;12780;45.502;9.146;2023-03-14T05:38:02;36.03;;;19.05;;
24644;SDS011;12780;45.502;9.146;2023-03-14T05:40:27;39.15;;;20.20;;
24644;SDS011;12780;45.502;9.146;2023-03-14T05:42:53;38.28;;;19.30;;
24644;SDS011;12780;45.502;9.146;2023-03-14T05:45:18;35.78;;;18.45;;
24644;SDS011;12780;45.502;9.146;2023-03-14T05:47:44;36.65;;;19.17;;
24644;SDS011;12780;45.502;9.146;2023-03-14T05:50:10;30.00;;;18.65;;
24644;SDS011;12780;45.502;9.146;2023-03-14T05:52:36;31.60;;;18.20;;
24644;SDS011;12780;45.502;9.146;2023-03-14T05:55:01;33.88;;;17.63;;
24644;SDS011;12780;45.502;9.146;2023-03-14T05:57:27;33.92;;;17.70;;
24644;SDS011;12780;45.502;9.146;2023-03-14T05:59:53;35.78;;;17.52;;
24644;SDS011;12780;45.502;9.146;2023-03-14T06:02:18;30.88;;;17.55;;
24644;SDS011;12780;45.502;9.146;2023-03-14T06:04:45;33.33;;;18.80;;
24644;SDS011;12780;45.502;9.146;2023-03-14T06:07:11;33.92;;;18.20;;
24644;SDS011;12780;45.502;9.146;2023-03-14T06:09:36;33.58;;;18.63;;
24644;SDS011;12780;45.502;9.146;2023-03-14T06:12:03;37.60;;;18.67;;
24644;SDS011;12780;45.502;9.146;2023-03-14T06:14:28;34.92;;;19.13;;
24644;SDS011;12780;45.502;9.146;2023-03-14T06:16:54;33.33;;;18.67;;
24644;SDS011;12780;45.502;9.146;2023-03-14T06:19:19;31.45;;;18.10;;
24644;SDS011;12780;45.502;9.146;2023-03-14T06:21:45;32.28;;;18.45;;
24644;SDS011;12780;45.502;9.146;2023-03-14T06:24:11;35.42;;;18.73;;
24644;SDS011;12780;45.502;9.146;2023-03-14T06:26:37;36.58;;;20.88;;
24644;SDS011;12780;45.502;9.146;2023-03-14T06:29:03;37.85;;;21.63;;
24644;SDS011;12780;45.502;9.146;2023-03-14T06:31:31;38.55;;;22.27;;
24644;SDS011;12780;45.502;9.146;2023-03-14T06:33:57;38.38;;;22.13;;
24644;SDS011;12780;45.502;9.146;2023-03-14T06:36:22;37.63;;;21.17;;
24644;SDS011;12780;45.502;9.146;2023-03-14T06:38:48;34.05;;;21.67;;
24644;SDS011;12780;45.502;9.146;2023-03-14T06:41:14;33.92;;;20.98;;
24644;SDS011;12780;45.502;9.146;2023-03-14T06:43:39;38.03;;;20.90;;
24644;SDS011;12780;45.502;9.146;2023-03-14T06:46:05;41.38;;;20.85;;
24644;SDS011;12780;45.502;9.146;2023-03-14T06:48:31;34.85;;;20.00;;
24644;SDS011;12780;45.502;9.146;2023-03-14T06:50:56;35.53;;;20.60;;
24644;SDS011;12780;45.502;9.146;2023-03-14T06:53:22;36.08;;;20.00;;
24644;SDS011;12780;45.502;9.146;2023-03-14T06:55:47;37.47;;;20.58;;
24644;SDS011;12780;45.502;9.146;2023-03-14T06:58:13;33.63;;;21.25;;
24644;SDS011;12780;45.502;9.146;2023-03-14T07:00:39;35.35;;;21.45;;
24644;SDS011;12780;45.502;9.146;2023-03-14T07:03:04;37.33;;;20.48;;
24644;SDS011;12780;45.502;9.146;2023-03-14T07:05:30;34.70;;;19.75;;
24644;SDS011;12780;45.502;9.146;2023-03-14T07:07:55;33.88;;;21.08;;
24644;SDS011;12780;45.502;9.146;2023-03-14T07:10:22;43.08;;;22.08;;
24644;SDS011;12780;45.502;9.146;2023-03-14T07:12:47;37.40;;;20.77;;
24644;SDS011;12780;45.502;9.146;2023-03-14T07:15:13;34.08;;;20.60;;
24644;SDS011;12780;45.502;9.146;2023-03-14T07:17:38;38.88;;;22.02;;
24644;SDS011;12780;45.502;9.146;2023-03-14T07:20:04;39.25;;;22.50;;
24644;SDS011;12780;45.502;9.146;2023-03-14T07:22:30;48.08;;;26.02;;
24644;SDS011;12780;45.502;9.146;2023-03-14T07:24:56;48.83;;;27.27;;
24644;SDS011;12780;45.502;9.146;2023-03-14T07:27:21;45.90;;;26.33;;
24644;SDS011;12780;45.502;9.146;2023-03-14T07:29:47;45.50;;;25.17;;
24644;SDS011;12780;45.502;9.146;2023-03-14T07:32:13;50.25;;;26.95;;
24644;SDS011;12780;45.502;9.146;2023-03-14T07:34:40;49.47;;;26.45;;
24644;SDS011;12780;45.502;9.146;2023-03-14T07:37:06;53.28;;;28.48;;
24644;SDS011;12780;45.502;9.146;2023-03-14T07:39:32;45.63;;;25.55;;
24644;SDS011;12780;45.502;9.146;2023-03-14T07:41:58;46.65;;;26.23;;
24644;SDS011;12780;45.502;9.146;2023-03-14T07:44:23;51.20;;;27.70;;
24644;SDS011;12780;45.502;9.146;2023-03-14T07:46:49;47.70;;;26.50;;
24644;SDS011;12780;45.502;9.146;2023-03-14T07:49:15;48.38;;;27.20;;
24644;SDS011;12780;45.502;9.146;2023-03-14T07:51:40;54.03;;;28.38;;
24644;SDS011;12780;45.502;9.146;2023-03-14T07:54:06;55.78;;;29.88;;
24644;SDS011;12780;45.502;9.146;2023-03-14T07:56:31;62.45;;;30.35;;
24644;SDS011;12780;45.502;9.146;2023-03-14T07:58:57;59.60;;;30.38;;
24644;SDS011;12780;45.502;9.146;2023-03-14T08:01:23;58.13;;;29.48;;
24644;SDS011;12780;45.502;9.146;2023-03-14T08:03:48;43.80;;;23.63;;
24644;SDS011;12780;45.502;9.146;2023-03-14T08:06:14;53.05;;;26.33;;
24644;SDS011;12780;45.502;9.146;2023-03-14T08:08:39;44.25;;;25.75;;
24644;SDS011;12780;45.502;9.146;2023-03-14T08:11:06;37.92;;;22.17;;
24644;SDS011;12780;45.502;9.146;2023-03-14T08:13:33;44.67;;;22.98;;
24644;SDS011;12780;45.502;9.146;2023-03-14T08:16:00;43.22;;;24.25;;
24644;SDS011;12780;45.502;9.146;2023-03-14T08:18:25;46.33;;;25.10;;
24644;SDS011;12780;45.502;9.146;2023-03-14T08:20:51;46.70;;;25.58;;
24644;SDS011;12780;45.502;9.146;2023-03-14T08:23:16;47.45;;;25.13;;
24644;SDS011;12780;45.502;9.146;2023-03-14T08:25:42;49.83;;;26.92;;
24644;SDS011;12780;45.502;9.146;2023-03-14T08:28:08;48.67;;;25.92;;
24644;SDS011;12780;45.502;9.146;2023-03-14T08:30:33;50.90;;;26.17;;
24644;SDS011;12780;45.502;9.146;2023-03-14T08:32:59;47.00;;;25.52;;
24644;SDS011;12780;45.502;9.146;2023-03-14T08:35:25;51.03;;;27.40;;
24644;SDS011;12780;45.502;9.146;2023-03-14T08:37:51;53.28;;;28.00;;
24644;SDS011;12780;45.502;9.146;2023-03-14T08:40:17;47.70;;;26.23;;
24644;SDS011;12780;45.502;9.146;2023-03-14T08:42:43;46.50;;;27.48;;
24644;SDS011;12780;45.502;9.146;2023-03-14T08:45:10;47.28;;;26.88;;
24644;SDS011;12780;45.502;9.146;2023-03-14T08:47:37;46.88;;;25.60;;
24644;SDS011;12780;45.502;9.146;2023-03-14T08:50:03;44.13;;;25.88;;
24644;SDS011;12780;45.502;9.146;2023-03-14T08:52:30;48.30;;;25.55;;
24644;SDS011;12780;45.502;9.146;2023-03-14T08:54:56;41.38;;;24.80;;
24644;SDS011;12780;45.502;9.146;2023-03-14T08:57:22;43.50;;;24.83;;
24644;SDS011;12780;45.502;9.146;2023-03-14T08:59:52;46.15;;;25.73;;
24644;SDS011;12780;45.502;9.146;2023-03-14T09:02:19;50.13;;;26.67;;
24644;SDS011;12780;45.502;9.146;2023-03-14T09:04:44;44.25;;;25.77;;
24644;SDS011;12780;45.502;9.146;2023-03-14T09:07:10;43.05;;;23.17;;
24644;SDS011;12780;45.502;9.146;2023-03-14T09:09:35;40.67;;;22.92;;
24644;SDS011;12780;45.502;9.146;2023-03-14T09:12:01;41.95;;;22.15;;
24644;SDS011;12780;45.502;9.146;2023-03-14T09:14:27;32.90;;;20.75;;
24644;SDS011;12780;45.502;9.146;2023-03-14T09:16:53;36.22;;;21.20;;
24644;SDS011;12780;45.502;9.146;2023-03-14T09:19:19;33.20;;;19.65;;
24644;SDS011;12780;45.502;9.146;2023-03-14T09:21:45;32.92;;;19.55;;
24644;SDS011;12780;45.502;9.146;2023-03-14T09:24:11;33.50;;;20.50;;
24644;SDS011;12780;45.502;9.146;2023-03-14T09:26:36;34.00;;;19.70;;
24644;SDS011;12780;45.502;9.146;2023-03-14T09:29:02;34.80;;;19.48;;
24644;SDS011;12780;45.502;9.146;2023-03-14T09:31:28;35.83;;;19.63;;
24644;SDS011;12780;45.502;9.146;2023-03-14T09:33:54;33.42;;;20.55;;
24644;SDS011;12780;45.502;9.146;2023-03-14T09:36:20;30.58;;;18.60;;
24644;SDS011;12780;45.502;9.146;2023-03-14T09:38:46;34.30;;;19.27;;
24644;SDS011;12780;45.502;9.146;2023-03-14T09:41:16;36.10;;;19.80;;
24644;SDS011;12780;45.502;9.146;2023-03-14T09:43:46;31.73;;;19.83;;
24644;SDS011;12780;45.502;9.146;2023-03-14T09:46:15;32.08;;;18.85;;
24644;SDS011;12780;45.502;9.146;2023-03-14T09:48:41;32.30;;;19.15;;
24644;SDS011;12780;45.502;9.146;2023-03-14T09:51:16;29.77;;;18.33;;
24644;SDS011;12780;45.502;9.146;2023-03-14T09:53:46;32.28;;;18.15;;
24644;SDS011;12780;45.502;9.146;2023-03-14T09:56:17;33.40;;;19.33;;
24644;SDS011;12780;45.502;9.146;2023-03-14T09:58:44;33.35;;;18.77;;
24644;SDS011;12780;45.502;9.146;2023-03-14T10:01:14;30.73;;;18.95;;
24644;SDS011;12780;45.502;9.146;2023-03-14T10:03:43;33.65;;;19.63;;
24644;SDS011;12780;45.502;9.146;2023-03-14T10:06:11;34.25;;;19.10;;
24644;SDS011;12780;45.502;9.146;2023-03-14T10:08:42;33.70;;;19.70;;
24644;SDS011;12780;45.502;9.146;2023-03-14T10:11:12;37.80;;;20.98;;
24644;SDS011;12780;45.502;9.146;2023-03-14T10:13:47;40.42;;;20.77;;
24644;SDS011;12780;45.502;9.146;2023-03-14T10:18:39;36.70;;;19.27;;
24644;SDS011;12780;45.502;9.146;2023-03-14T10:21:26;41.17;;;20.10;;
24644;SDS011;12780;45.502;9.146;2023-03-14T10:26:26;39.55;;;18.88;;
24644;SDS011;12780;45.502;9.146;2023-03-14T10:28:53;40.22;;;20.65;;
24644;SDS011;12780;45.502;9.146;2023-03-14T10:31:52;37.03;;;19.23;;
24644;SDS011;12780;45.502;9.146;2023-03-14T10:34:24;39.58;;;19.23;;
24644;SDS011;12780;45.502;9.146;2023-03-14T10:36:53;40.30;;;19.17;;
24644;SDS011;12780;45.502;9.146;2023-03-14T10:42:15;29.92;;;15.23;;
24644;SDS011;12780;45.502;9.146;2023-03-14T10:45:06;27.27;;;15.52;;
24644;SDS011;12780;45.502;9.146;2023-03-14T10:47:50;27.27;;;14.43;;
24644;SDS011;12780;45.502;9.146;2023-03-14T10:50:26;24.88;;;14.57;;
24644;SDS011;12780;45.502;9.146;2023-03-14T10:52:54;25.85;;;14.73;;
24644;SDS011;12780;45.502;9.146;2023-03-14T10:55:23;26.83;;;15.63;;
24644;SDS011;12780;45.502;9.146;2023-03-14T10:57:50;24.73;;;14.50;;
24644;SDS011;12780;45.502;9.146;2023-03-14T11:00:18;25.50;;;14.00;;
24644;SDS011;12780;45.502;9.146;2023-03-14T11:03:07;22.83;;;12.52;;
24644;SDS011;12780;45.502;9.146;2023-03-14T11:08:20;21.02;;;12.13;;
24644;SDS011;12780;45.502;9.146;2023-03-14T11:11:18;23.17;;;12.70;;
24644;SDS011;12780;45.502;9.146;2023-03-14T11:13:55;22.48;;;12.73;;
24644;SDS011;12780;45.502;9.146;2023-03-14T11:16:46;21.90;;;13.75;;
24644;SDS011;12780;45.502;9.146;2023-03-14T11:27:52;26.73;;;13.70;;
24644;SDS011;12780;45.502;9.146;2023-03-14T11:30:33;25.85;;;14.10;;
24644;SDS011;12780;45.502;9.146;2023-03-14T11:33:13;21.25;;;14.13;;
24644;SDS011;12780;45.502;9.146;2023-03-14T11:38:48;23.63;;;13.52;;
24644;SDS011;12780;45.502;9.146;2023-03-14T11:41:16;28.50;;;15.65;;
24644;SDS011;12780;45.502;9.146;2023-03-14T11:43:51;26.05;;;14.05;;
24644;SDS011;12780;45.502;9.146;2023-03-14T11:46:24;25.55;;;16.10;;
24644;SDS011;12780;45.502;9.146;2023-03-14T11:51:36;26.67;;;14.63;;
24644;SDS011;12780;45.502;9.146;2023-03-14T11:56:58;25.02;;;14.55;;
24644;SDS011;12780;45.502;9.146;2023-03-14T11:59:33;23.80;;;14.02;;
24644;SDS011;12780;45.502;9.146;2023-03-14T12:02:33;22.58;;;13.40;;
24644;SDS011;12780;45.502;9.146;2023-03-14T12:08:09;24.88;;;14.15;;
24644;SDS011;12780;45.502;9.146;2023-03-14T12:10:43;26.80;;;14.73;;
24644;SDS011;12780;45.502;9.146;2023-03-14T12:13:13;25.73;;;14.45;;
24644;SDS011;12780;45.502;9.146;2023-03-14T12:15:42;29.42;;;14.20;;
24644;SDS011;12780;45.502;9.146;2023-03-14T12:20:56;28.35;;;15.38;;
24644;SDS011;12780;45.502;9.146;2023-03-14T12:23:24;22.95;;;14.63;;
24644;SDS011;12780;45.502;9.146;2023-03-14T12:26:08;22.48;;;13.52;;
24644;SDS011;12780;45.502;9.146;2023-03-14T12:28:48;28.20;;;15.73;;
24644;SDS011;12780;45.502;9.146;2023-03-14T12:34:03;17.88;;;11.45;;
24644;SDS011;12780;45.502;9.146;2023-03-14T12:39:15;21.45;;;12.00;;
24644;SDS011;12780;45.502;9.146;2023-03-14T12:44:37;21.23;;;11.00;;
24644;SDS011;12780;45.502;9.146;2023-03-14T12:49:45;18.75;;;10.65;;
24644;SDS011;12780;45.502;9.146;2023-03-14T12:52:18;21.42;;;11.60;;
24644;SDS011;12780;45.502;9.146;2023-03-14T12:54:48;19.77;;;12.07;;
24644;SDS011;12780;45.502;9.146;2023-03-14T13:00:22;19.30;;;12.07;;
24644;SDS011;12780;45.502;9.146;2023-03-14T13:02:58;19.60;;;11.77;;
24644;SDS011;12780;45.502;9.146;2023-03-14T13:06:00;22.35;;;11.82;;
24644;SDS011;12780;45.502;9.146;2023-03-14T13:08:47;20.80;;;11.43;;
24644;SDS011;12780;45.502;9.146;2023-03-14T13:11:16;17.70;;;11.27;;
24644;SDS011;12780;45.502;9.146;2023-03-14T13:13:45;19.23;;;11.25;;
24644;SDS011;12780;45.502;9.146;2023-03-14T13:16:18;16.27;;;10.77;;
24644;SDS011;12780;45.502;9.146;2023-03-14T13:18:47;22.70;;;11.73;;
24644;SDS011;12780;45.502;9.146;2023-03-14T13:21:17;17.30;;;11.70;;
24644;SDS011;12780;45.502;9.146;2023-03-14T13:23:58;22.73;;;12.88;;
24644;SDS011;12780;45.502;9.146;2023-03-14T13:26:32;18.45;;;12.88;;
24644;SDS011;12780;45.502;9.146;2023-03-14T13:29:17;20.08;;;12.93;;
24644;SDS011;12780;45.502;9.146;2023-03-14T13:31:47;21.65;;;12.02;;
24644;SDS011;12780;45.502;9.146;2023-03-14T13:34:14;20.10;;;12.30;;
24644;SDS011;12780;45.502;9.146;2023-03-14T13:36:39;19.38;;;12.02;;
24644;SDS011;12780;45.502;9.146;2023-03-14T13:39:22;22.88;;;13.05;;
24644;SDS011;12780;45.502;9.146;2023-03-14T13:41:50;21.10;;;12.43;;
24644;SDS011;12780;45.502;9.146;2023-03-14T13:44:27;19.48;;;12.30;;
24644;SDS011;12780;45.502;9.146;2023-03-14T13:46:59;17.83;;;12.02;;
24644;SDS011;12780;45.502;9.146;2023-03-14T13:49:26;23.17;;;13.40;;
24644;SDS011;12780;45.502;9.146;2023-03-14T13:51:54;22.08;;;13.90;;
24644;SDS011;12780;45.502;9.146;2023-03-14T13:54:20;20.67;;;13.00;;
24644;SDS011;12780;45.502;9.146;2023-03-14T13:56:47;19.40;;;13.05;;
24644;SDS011;12780;45.502;9.146;2023-03-14T13:59:27;21.63;;;12.57;;
24644;SDS011;12780;45.502;9.146;2023-03-14T14:01:54;18.83;;;12.00;;
24644;SDS011;12780;45.502;9.146;2023-03-14T14:04:22;19.45;;;11.73;;
24644;SDS011;12780;45.502;9.146;2023-03-14T14:06:52;18.58;;;11.60;;
24644;SDS011;12780;45.502;9.146;2023-03-14T14:14:54;18.75;;;11.90;;
24644;SDS011;12780;45.502;9.146;2023-03-14T14:17:39;17.20;;;11.32;;
24644;SDS011;12780;45.502;9.146;2023-03-14T14:20:23;18.55;;;11.93;;
24644;SDS011;12780;45.502;9.146;2023-03-14T14:22:59;18.20;;;12.23;;
24644;SDS011;12780;45.502;9.146;2023-03-14T14:25:28;18.80;;;12.10;;
24644;SDS011;12780;45.502;9.146;2023-03-14T14:27:54;18.45;;;11.68;;
24644;SDS011;12780;45.502;9.146;2023-03-14T14:32:48;18.92;;;12.02;;
24644;SDS011;12780;45.502;9.146;2023-03-14T14:35:22;20.05;;;12.40;;
24644;SDS011;12780;45.502;9.146;2023-03-14T14:37:51;17.35;;;11.90;;
24644;SDS011;12780;45.502;9.146;2023-03-14T14:40:21;19.10;;;12.32;;
24644;SDS011;12780;45.502;9.146;2023-03-14T14:42:49;19.33;;;12.43;;
24644;SDS011;12780;45.502;9.146;2023-03-14T14:45:19;20.70;;;12.70;;
24644;SDS011;12780;45.502;9.146;2023-03-14T14:47:51;20.83;;;13.40;;
24644;SDS011;12780;45.502;9.146;2023-03-14T14:53:16;21.30;;;13.32;;
24644;SDS011;12780;45.502;9.146;2023-03-14T14:55:50;22.73;;;13.55;;
24644;SDS011;12780;45.502;9.146;2023-03-14T14:58:19;22.48;;;14.93;;
24644;SDS011;12780;45.502;9.146;2023-03-14T15:00:56;28.10;;;14.73;;
24644;SDS011;12780;45.502;9.146;2023-03-14T15:03:32;21.20;;;14.60;;
24644;SDS011;12780;45.502;9.146;2023-03-14T15:05:59;22.75;;;14.95;;
24644;SDS011;12780;45.502;9.146;2023-03-14T15:08:25;25.08;;;15.45;;
24644;SDS011;12780;45.502;9.146;2023-03-14T15:10:51;26.17;;;16.00;;
24644;SDS011;12780;45.502;9.146;2023-03-14T15:13:17;38.55;;;16.92;;
24644;SDS011;12780;45.502;9.146;2023-03-14T15:15:42;25.92;;;16.08;;
24644;SDS011;12780;45.502;9.146;2023-03-14T15:18:16;27.08;;;16.73;;
24644;SDS011;12780;45.502;9.146;2023-03-14T15:20:45;26.70;;;16.92;;
24644;SDS011;12780;45.502;9.146;2023-03-14T15:23:12;29.75;;;18.27;;
24644;SDS011;12780;45.502;9.146;2023-03-14T15:25:40;26.30;;;17.42;;
24644;SDS011;12780;45.502;9.146;2023-03-14T15:28:12;26.80;;;18.15;;
24644;SDS011;12780;45.502;9.146;2023-03-14T15:30:47;27.27;;;18.27;;
24644;SDS011;12780;45.502;9.146;2023-03-14T15:33:14;25.98;;;17.55;;